Flight Track Log - Related Links

Times and Time Zones

All times are in EDT time to prevent confusion due to time zone crossing. See the N110GW flight status page for this flight to view local times or setup timezone preferences in your user account.

Time Position Orientation Groundspeed Altitude Reporting Facility
EDT Latitude Longitude Course Direction KTS MPH feet Rate Location/Type
Thu 11:24:46 AM 40.1256 -80.7142 219° Southwest 151 174 4,000  Level Cleveland Center
Thu 11:25:48 AM 40.0836 -80.7514 214° Southwest 169 194 4,200 1,306 Climbing Cleveland Center
Thu 11:26:50 AM 40.0467 -80.7864 216° Southwest 173 199 6,700 2,195 Climbing Cleveland Center
Thu 11:27:51 AM 40.0142 -80.8211 219° Southwest 157 181 8,700 1,983 Climbing Cleveland Center
Thu 11:28:51 AM 40.0053 -80.8781 258° West 145 167 10,700 1,820 Climbing Indianapolis Center
Thu 11:29:00 AM 39.9674 -81.0122 258° West  Level FlightAware Approximate
Thu 11:29:53 AM 39.9967 -80.9278 257° West 139 160 12,400  Level Indianapolis Center
Thu 11:30:55 AM 39.9864 -80.9817 256° West 144 166 13,100 677 Climbing Indianapolis Center
Thu 11:31:57 AM 39.9722 -81.0572 256° West 195 224 13,800 1,258 Climbing Indianapolis Center
Thu 11:32:59 AM 39.9606 -81.1208 257° West 189 217 15,700 1,113 Climbing Indianapolis Center
Thu 11:34:01 AM 39.9481 -81.1867 256° West 174 200 16,100 195 Climbing Indianapolis Center
Thu 11:35:02 AM 39.9336 -81.2625 256° West 206 237 16,100  Level Indianapolis Center
Thu 11:36:04 AM 39.9189 -81.3439 257° West 225 259 16,100  Level Indianapolis Center
Thu 11:37:06 AM 39.9033 -81.4278 256° West 235 270 16,100  Level Indianapolis Center
Thu 11:38:08 AM 39.8878 -81.5086 256° West 235 270 16,100  Level Indianapolis Center
Thu 11:39:10 AM 39.8725 -81.5919 257° West 235 270 16,100  Level Indianapolis Center
Thu 11:40:12 AM 39.8531 -81.6919 256° West 236 272 16,100  Level Indianapolis Center
Thu 11:41:14 AM 39.8386 -81.7739 257° West 236 272 16,100  Level Indianapolis Center
Thu 11:43:15 AM 39.8050 -81.9406 255° West 237 273 16,100  Level Cleveland Center
Thu 11:44:17 AM 39.8158 -82.0153 281° West 217 250 16,100 -48 Level Cleveland Center
Thu 11:45:21 AM 39.8214 -82.0933 275° West 226 260 16,000 -48 Descending Indianapolis Center
Thu 11:46:23 AM 39.8075 -82.1783 258° West 235 270 16,000  Level Indianapolis Center
Thu 11:47:25 AM 39.7908 -82.2794 258° West 236 272 16,000  Level Indianapolis Center
Thu 11:48:27 AM 39.7775 -82.3625 258° West 236 272 16,000  Level Indianapolis Center
Thu 11:49:29 AM 39.7644 -82.4453 258° West 236 272 16,000  Level Indianapolis Center
Thu 11:50:31 AM 39.7503 -82.5292 258° West 236 272 16,000  Level Indianapolis Center
Thu 11:51:32 AM 39.7367 -82.6125 258° West 236 272 16,000  Level Indianapolis Center
Thu 11:52:34 AM 39.7231 -82.6944 258° West 236 272 16,000  Level Indianapolis Center
Thu 11:53:36 AM 39.7064 -82.7933 258° West 236 272 16,000 -48 Level Indianapolis Center
Thu 11:54:38 AM 39.6928 -82.8758 258° West 235 270 15,900 -48 Descending Indianapolis Center
Thu 11:55:40 AM 39.6792 -82.9575 258° West 235 270 15,900  Level Indianapolis Center
Thu 11:56:42 AM 39.6653 -83.0383 257° West 234 269 15,900  Level Indianapolis Center
Thu 11:58:46 AM 39.6372 -83.2031 258° West 234 269 15,900  Level Indianapolis Center
Thu 11:59:47 AM 39.6233 -83.2867 258° West 234 269 15,900 -119 Level Indianapolis Center
Thu 12:00:27 PM 39.6119 -83.3586 258° West 238 274 15,700 -387 Descending Indianapolis Center
Thu 12:00:49 PM 39.6092 -83.3711 254° West 234 269 15,500 -764 Descending Indianapolis Center
Thu 12:01:22 PM 39.6003 -83.4328 259° West 249 287 15,000 -1,065 Descending Indianapolis Center
Thu 12:01:51 PM 39.5900 -83.4778 254° West 247 284 14,400 -1,279 Descending Indianapolis Center
Thu 12:02:23 PM 39.5825 -83.5278 259° West 251 289 13,700 -1,355 Descending Indianapolis Center
Thu 12:02:53 PM 39.5756 -83.5653 257° West 247 284 13,000 -1,164 Descending Indianapolis Center
Thu 12:03:30 PM 39.5686 -83.6231 261° West 258 297 12,400 -1,065 Descending Indianapolis Center
Thu 12:03:55 PM 39.5583 -83.6525 246° West 247 284 11,900 -1,200 Descending Indianapolis Center
Thu 12:04:25 PM 39.5381 -83.6967 239° Southwest 261 300 11,300 -1,161 Descending Indianapolis Center
Thu 12:04:57 PM 39.5164 -83.7283 228° Southwest 257 296 10,700 -1,355 Descending Indianapolis Center
Thu 12:05:58 PM 39.4736 -83.8000 232° Southwest 257 296 9,200 -1,415 Descending Indianapolis Center
Thu 12:07:00 PM 39.4322 -83.8697 232° Southwest 251 289 7,800 -1,306 Descending Indianapolis Center
Thu 12:08:02 PM 39.3914 -83.9392 233° Southwest 247 284 6,500 -1,548 Descending Indianapolis Center
Thu 12:09:04 PM 39.3489 -84.0117 233° Southwest 229 264 4,600 -1,210 Descending Indianapolis Center
Thu 12:10:06 PM 39.3142 -84.0683 232° Southwest 212 244 4,000 -293 Descending Indianapolis Center
Thu 12:11:07 PM 39.2819 -84.1219 232° Southwest 200 230 4,000  Level Indianapolis Center
Thu 12:12:09 PM 39.2511 -84.1736 232° Southwest 190 219 4,000 -290 Level Indianapolis Center
Thu 12:13:11 PM 39.2211 -84.2247 233° Southwest 184 212 3,400 -484 Descending Indianapolis Center
Thu 12:14:13 PM 39.1875 -84.2806 232° Southwest 180 207 3,000 -659 Descending Indianapolis Center
Thu 12:16:04 PM 39.1667 -84.3500 249° West 121 139 1,500 -582 Descending Cincinnati TRACON
Thu 12:16:58 PM 39.1500 -84.3833 237° Southwest 124 143 1,400 -111 Descending Cincinnati TRACON
Thu 12:18:00 PM 39.1000 -84.4167 233° Southwest  Level FlightAware Approximate
Thu 12:25:00 PM 39.1033 -84.4186 233° Southwest  Level Estimated
Thu 12:26:00 PM 39.1000 -84.4167 233° Southwest  Level FlightAware Approximate

Login

Don't have an account? Register now (free) for customized features, flight alerts, and more!